Time,TemperatureF,DewpointF,PressureIn,WindDirection,WindDirectionDegrees,WindSpeedMPH,WindSpeedGustMPH,Humidity,HourlyPrecipIn,Conditions,Clouds,dailyrainin,SoftwareType,DateUTC
2013-09-22 00:13:00,53.1,52.0,29.95,WSW,251,0.0,0.0,97,0.00,,,0.43,weatherlink.com 1.10,2013-09-22 04:13:00,
2013-09-22 00:28:00,53.3,53.0,29.95,WSW,251,0.0,1.0,97,0.00,,,0.43,weatherlink.com 1.10,2013-09-22 04:28:00,
2013-09-22 00:43:00,53.4,53.0,29.95,WNW,292,0.0,0.0,97,0.00,,,0.43,weatherlink.com 1.10,2013-09-22 04:43:00,
2013-09-22 00:58:00,53.2,52.0,29.95,North,360,0.0,1.0,97,0.00,,,0.43,weatherlink.com 1.10,2013-09-22 04:58:00,
2013-09-22 01:13:00,52.5,51.0,29.95,North,360,0.0,0.0,96,0.00,,,0.43,weatherlink.com 1.10,2013-09-22 05:13:00,
2013-09-22 01:28:00,52.1,51.0,29.95,North,360,0.0,0.0,96,0.00,,,0.43,weatherlink.com 1.10,2013-09-22 05:28:00,
2013-09-22 01:43:00,51.9,51.0,29.96,North,360,0.0,0.0,96,0.00,,,0.43,weatherlink.com 1.10,2013-09-22 05:43:00,
2013-09-22 01:58:00,52.1,51.0,29.96,NNW,348,3.0,3.0,97,0.00,,,0.43,weatherlink.com 1.10,2013-09-22 05:58:00,
2013-09-22 02:13:00,52.0,51.0,29.96,NNW,348,0.0,0.0,97,0.00,,,0.43,weatherlink.com 1.10,2013-09-22 06:13:00,
2013-09-22 02:28:00,51.5,51.0,29.96,NNW,348,0.0,0.0,97,0.00,,,0.43,weatherlink.com 1.10,2013-09-22 06:28:00,
2013-09-22 02:43:00,51.3,51.0,29.96,NNW,348,0.0,0.0,97,0.00,,,0.43,weatherlink.com 1.10,2013-09-22 06:43:00,
2013-09-22 02:58:00,50.9,50.0,29.96,NNW,348,0.0,0.0,97,0.00,,,0.43,weatherlink.com 1.10,2013-09-22 06:58:00,
2013-09-22 03:13:00,51.0,50.0,29.96,NNW,348,0.0,0.0,97,0.00,,,0.43,weatherlink.com 1.10,2013-09-22 07:13:00,
2013-09-22 03:28:00,51.7,51.0,29.96,WSW,249,0.0,1.0,98,0.00,,,0.43,weatherlink.com 1.10,2013-09-22 07:28:00,
2013-09-22 03:43:00,51.9,51.0,29.96,WSW,249,0.0,0.0,97,0.00,,,0.43,weatherlink.com 1.10,2013-09-22 07:43:00,
2013-09-22 03:58:00,52.0,51.0,29.97,NW,325,0.0,2.0,97,0.00,,,0.43,weatherlink.com 1.10,2013-09-22 07:58:00,
2013-09-22 04:13:00,52.1,51.0,29.97,NNW,333,0.0,2.0,97,0.00,,,0.43,weatherlink.com 1.10,2013-09-22 08:13:00,
2013-09-22 04:28:00,52.1,51.0,29.97,NNW,328,2.0,4.0,97,0.00,,,0.43,weatherlink.com 1.10,2013-09-22 08:28:00,
2013-09-22 04:43:00,52.3,52.0,29.98,NW,321,0.0,2.0,97,0.00,,,0.43,weatherlink.com 1.10,2013-09-22 08:43:00,
2013-09-22 04:58:00,52.3,52.0,29.98,West,276,1.0,1.0,97,0.00,,,0.43,weatherlink.com 1.10,2013-09-22 08:58:00,
2013-09-22 05:14:00,52.2,51.0,29.98,West,276,0.0,0.0,97,0.00,,,0.43,weatherlink.com 1.10,2013-09-22 09:14:00,
2013-09-22 05:29:00,52.2,51.0,29.98,West,276,0.0,0.0,97,0.00,,,0.00,weatherlink.com 1.10,2013-09-22 09:29:00,
2013-09-22 05:44:00,52.1,51.0,29.98,West,276,0.0,0.0,97,0.00,,,0.00,weatherlink.com 1.10,2013-09-22 09:44:00,
2013-09-22 05:59:00,52.2,51.0,29.99,West,268,0.0,0.0,97,0.00,,,0.00,weatherlink.com 1.10,2013-09-22 09:59:00,
2013-09-22 06:14:00,52.1,51.0,29.99,West,268,0.0,0.0,97,0.00,,,0.00,weatherlink.com 1.10,2013-09-22 10:14:00,
2013-09-22 06:29:00,52.2,51.0,29.99,WNW,288,0.0,0.0,97,0.00,,,0.00,weatherlink.com 1.10,2013-09-22 10:29:00,
2013-09-22 06:44:00,52.4,52.0,30.00,West,266,0.0,2.0,97,0.00,,,0.00,weatherlink.com 1.10,2013-09-22 10:44:00,
2013-09-22 06:59:00,52.6,52.0,30.00,NW,319,0.0,0.0,97,0.00,,,0.00,weatherlink.com 1.10,2013-09-22 10:59:00,
2013-09-22 07:14:00,52.6,52.0,30.00,SW,223,0.0,0.0,97,0.00,,,0.00,weatherlink.com 1.10,2013-09-22 11:14:00,
2013-09-22 07:29:00,52.7,52.0,30.01,West,273,0.0,1.0,97,0.00,,,0.00,weatherlink.com 1.10,2013-09-22 11:29:00,
2013-09-22 07:44:00,52.6,52.0,30.02,West,273,0.0,0.0,97,0.00,,,0.00,weatherlink.com 1.10,2013-09-22 11:44:00,
2013-09-22 07:59:00,52.5,52.0,30.02,West,276,0.0,1.0,97,0.00,,,0.00,weatherlink.com 1.10,2013-09-22 11:59:00,
2013-09-22 08:14:00,52.1,51.0,30.02,West,276,0.0,0.0,96,0.00,,,0.00,weatherlink.com 1.10,2013-09-22 12:14:00,
2013-09-22 08:29:00,52.1,51.0,30.03,NW,308,0.0,2.0,97,0.00,,,0.00,weatherlink.com 1.10,2013-09-22 12:29:00,
2013-09-22 08:44:00,52.4,51.0,30.03,West,266,0.0,3.0,96,0.00,,,0.00,weatherlink.com 1.10,2013-09-22 12:44:00,
2013-09-22 08:59:00,52.6,51.0,30.03,NNW,338,3.0,6.0,95,0.00,,,0.00,weatherlink.com 1.10,2013-09-22 12:59:00,
2013-09-22 09:14:00,52.9,51.0,30.04,North,355,2.0,6.0,94,0.00,,,0.00,weatherlink.com 1.10,2013-09-22 13:14:00,
2013-09-22 09:29:00,53.5,52.0,30.05,North,5,0.0,4.0,94,0.00,,,0.00,weatherlink.com 1.10,2013-09-22 13:29:00,
2013-09-22 09:44:00,55.1,52.0,30.05,NW,314,3.0,7.0,90,0.00,,,0.00,weatherlink.com 1.10,2013-09-22 13:44:00,
2013-09-22 09:59:00,56.2,52.0,30.05,North,360,1.0,9.0,84,0.00,,,0.00,weatherlink.com 1.10,2013-09-22 13:59:00,
2013-09-22 10:14:00,56.5,51.0,30.05,WSW,237,1.0,6.0,83,0.00,,,0.00,weatherlink.com 1.10,2013-09-22 14:14:00,
2013-09-22 10:29:00,55.2,51.0,30.06,SW,232,0.0,0.0,86,0.00,,,0.00,weatherlink.com 1.10,2013-09-22 14:29:00,
2013-09-22 10:44:00,56.1,51.0,30.06,North,355,0.0,5.0,83,0.00,,,0.00,weatherlink.com 1.10,2013-09-22 14:44:00,
2013-09-22 10:59:00,56.4,51.0,30.07,NW,317,0.0,4.0,83,0.00,,,0.00,weatherlink.com 1.10,2013-09-22 14:59:00,
2013-09-22 11:14:00,58.4,52.0,30.07,WNW,302,0.0,3.0,79,0.00,,,0.00,weatherlink.com 1.10,2013-09-22 15:14:00,
2013-09-22 11:29:00,58.1,52.0,30.06,North,355,0.0,5.0,79,0.00,,,0.00,weatherlink.com 1.10,2013-09-22 15:29:00,
2013-09-22 11:44:00,58.5,52.0,30.06,WNW,302,0.0,7.0,79,0.01,,,0.01,weatherlink.com 1.10,2013-09-22 15:44:00,
2013-09-22 11:59:00,59.8,52.0,30.06,West,262,4.0,7.0,74,0.01,,,0.01,weatherlink.com 1.10,2013-09-22 15:59:00,
2013-09-22 12:14:00,59.6,49.0,30.07,NNW,347,0.0,9.0,69,0.01,,,0.01,weatherlink.com 1.10,2013-09-22 16:14:00,
2013-09-22 12:29:00,59.6,51.0,30.07,West,259,0.0,4.0,73,0.01,,,0.01,weatherlink.com 1.10,2013-09-22 16:29:00,
2013-09-22 12:44:00,60.4,50.0,30.07,WSW,252,0.0,5.0,69,0.00,,,0.01,weatherlink.com 1.10,2013-09-22 16:44:00,
2013-09-22 12:59:00,60.4,51.0,30.07,NNW,348,2.0,6.0,72,0.00,,,0.01,weatherlink.com 1.10,2013-09-22 16:59:00,
2013-09-22 13:14:00,60.4,50.0,30.07,North,9,5.0,6.0,69,0.00,,,0.01,weatherlink.com 1.10,2013-09-22 17:14:00,
2013-09-22 13:29:00,60.2,50.0,30.07,NNW,344,4.0,9.0,68,0.00,,,0.01,weatherlink.com 1.10,2013-09-22 17:29:00,
2013-09-22 13:44:00,61.4,50.0,30.06,NNW,348,0.0,6.0,66,0.00,,,0.01,weatherlink.com 1.10,2013-09-22 17:44:00,
2013-09-22 14:00:00,62.0,50.0,30.06,NNW,336,2.0,8.0,65,0.00,,,0.01,weatherlink.com 1.10,2013-09-22 18:00:00,
2013-09-22 14:15:00,60.9,50.0,30.06,North,355,0.0,9.0,67,0.00,,,0.01,weatherlink.com 1.10,2013-09-22 18:15:00,
2013-09-22 14:30:00,61.7,51.0,30.05,North,360,3.0,9.0,67,0.00,,,0.01,weatherlink.com 1.10,2013-09-22 18:30:00,
2013-09-22 14:45:00,62.3,50.0,30.05,WSW,249,0.0,6.0,65,0.00,,,0.01,weatherlink.com 1.10,2013-09-22 18:45:00,
2013-09-22 15:00:00,62.8,49.0,30.05,NNW,327,0.0,7.0,61,0.00,,,0.01,weatherlink.com 1.10,2013-09-22 19:00:00,
2013-09-22 15:15:00,62.4,51.0,30.05,NNW,341,0.0,5.0,66,0.00,,,0.01,weatherlink.com 1.10,2013-09-22 19:15:00,
2013-09-22 15:45:00,62.0,51.0,30.05,WNW,284,0.0,2.0,67,0.00,,,0.01,weatherlink.com 1.10,2013-09-22 19:45:00,
2013-09-22 16:00:00,62.6,50.0,30.05,South,188,0.0,5.0,64,0.00,,,0.01,weatherlink.com 1.10,2013-09-22 20:00:00,
2013-09-22 16:15:00,62.2,50.0,30.05,NNW,339,3.0,7.0,65,0.00,,,0.01,weatherlink.com 1.10,2013-09-22 20:15:00,
2013-09-22 16:30:00,61.5,50.0,30.05,NW,317,0.0,2.0,67,0.00,,,0.01,weatherlink.com 1.10,2013-09-22 20:30:00,
2013-09-22 16:45:00,61.4,51.0,30.05,NNE,26,0.0,3.0,69,0.00,,,0.01,weatherlink.com 1.10,2013-09-22 20:45:00,
2013-09-22 17:00:00,60.9,51.0,30.05,WSW,249,0.0,2.0,70,0.00,,,0.01,weatherlink.com 1.10,2013-09-22 21:00:00,
2013-09-22 17:15:00,60.8,50.0,30.05,NW,316,0.0,9.0,67,0.00,,,0.01,weatherlink.com 1.10,2013-09-22 21:15:00,
2013-09-22 17:30:00,60.7,51.0,30.06,NNW,344,0.0,3.0,70,0.00,,,0.01,weatherlink.com 1.10,2013-09-22 21:30:00,
2013-09-22 17:45:00,59.6,50.0,30.06,West,273,0.0,3.0,71,0.00,,,0.01,weatherlink.com 1.10,2013-09-22 21:45:00,
2013-09-22 18:00:00,59.7,51.0,30.06,NNW,344,3.0,7.0,73,0.00,,,0.01,weatherlink.com 1.10,2013-09-22 22:00:00,
2013-09-22 18:15:00,58.9,51.0,30.06,NW,323,1.0,8.0,75,0.00,,,0.01,weatherlink.com 1.10,2013-09-22 22:15:00,
2013-09-22 18:30:00,58.0,51.0,30.06,NNW,342,6.0,7.0,78,0.00,,,0.01,weatherlink.com 1.10,2013-09-22 22:30:00,
2013-09-22 18:45:00,57.3,51.0,30.07,North,349,0.0,4.0,79,0.00,,,0.01,weatherlink.com 1.10,2013-09-22 22:45:00,
2013-09-22 19:00:00,56.9,51.0,30.07,NNW,342,3.0,6.0,81,0.00,,,0.01,weatherlink.com 1.10,2013-09-22 23:00:00,
2013-09-22 19:15:00,56.4,51.0,30.07,NNW,331,2.0,5.0,83,0.00,,,0.01,weatherlink.com 1.10,2013-09-22 23:15:00,
2013-09-22 19:30:00,55.9,52.0,30.07,NNW,344,0.0,5.0,86,0.00,,,0.01,weatherlink.com 1.10,2013-09-22 23:30:00,
2013-09-22 19:45:00,55.2,52.0,30.08,NNW,331,0.0,3.0,88,0.00,,,0.01,weatherlink.com 1.10,2013-09-22 23:45:00,
2013-09-22 20:00:00,54.4,51.0,30.09,NNW,332,0.0,7.0,87,0.00,,,0.01,weatherlink.com 1.10,2013-09-23 00:00:00,
2013-09-22 20:15:00,53.6,50.0,30.09,NW,323,0.0,5.0,87,0.00,,,0.01,weatherlink.com 1.10,2013-09-23 00:15:00,
2013-09-22 20:30:00,53.0,50.0,30.09,North,350,1.0,5.0,88,0.00,,,0.01,weatherlink.com 1.10,2013-09-23 00:30:00,
2013-09-22 20:45:00,52.3,50.0,30.10,North,350,0.0,0.0,90,0.00,,,0.01,weatherlink.com 1.10,2013-09-23 00:45:00,
2013-09-22 21:00:00,51.6,49.0,30.11,North,350,0.0,0.0,91,0.00,,,0.01,weatherlink.com 1.10,2013-09-23 01:00:00,
2013-09-22 21:15:00,51.0,49.0,30.12,West,259,0.0,2.0,92,0.00,,,0.01,weatherlink.com 1.10,2013-09-23 01:15:00,
2013-09-22 21:30:00,50.5,48.0,30.11,WNW,296,0.0,0.0,92,0.00,,,0.01,weatherlink.com 1.10,2013-09-23 01:30:00,
2013-09-22 21:45:00,49.7,48.0,30.12,WNW,296,0.0,0.0,93,0.00,,,0.01,weatherlink.com 1.10,2013-09-23 01:45:00,
2013-09-22 22:00:00,48.8,47.0,30.13,WNW,296,0.0,0.0,93,0.00,,,0.01,weatherlink.com 1.10,2013-09-23 02:00:00,
2013-09-22 22:15:00,48.3,47.0,30.13,WNW,296,0.0,0.0,94,0.00,,,0.01,weatherlink.com 1.10,2013-09-23 02:15:00,
2013-09-22 22:30:00,48.2,47.0,30.14,WNW,296,0.0,0.0,95,0.00,,,0.01,weatherlink.com 1.10,2013-09-23 02:30:00,
2013-09-22 22:45:00,48.3,47.0,30.14,WNW,296,0.0,0.0,96,0.00,,,0.01,weatherlink.com 1.10,2013-09-23 02:45:00,
2013-09-22 23:00:00,48.7,48.0,30.14,WNW,296,0.0,0.0,96,0.00,,,0.01,weatherlink.com 1.10,2013-09-23 03:00:00,
2013-09-22 23:15:00,48.9,48.0,30.15,WNW,296,0.0,0.0,96,0.00,,,0.01,weatherlink.com 1.10,2013-09-23 03:15:00,
2013-09-22 23:30:00,49.2,48.0,30.14,WNW,296,0.0,0.0,96,0.00,,,0.01,weatherlink.com 1.10,2013-09-23 03:30:00,
2013-09-22 23:45:00,49.2,48.0,30.14,WNW,296,0.0,0.0,96,0.00,,,0.01,weatherlink.com 1.10,2013-09-23 03:45:00,